createdAt,value
2022-12-04T00:02:25.132Z,22.02
2022-12-04T00:04:51.701Z,22.00
2022-12-04T00:07:18.320Z,21.95
2022-12-04T00:09:44.863Z,21.92
2022-12-04T00:12:11.526Z,21.90
2022-12-04T00:15:00.799Z,21.87
2022-12-04T00:17:24.692Z,21.83
2022-12-04T00:19:51.146Z,21.79
2022-12-04T00:22:17.686Z,21.76
2022-12-04T00:24:44.152Z,21.73
2022-12-04T00:27:10.694Z,21.69
2022-12-04T00:29:37.403Z,21.66
2022-12-04T00:32:03.886Z,21.65
2022-12-04T00:34:30.353Z,21.62
2022-12-04T00:36:56.856Z,21.60
2022-12-04T00:39:23.328Z,21.58
2022-12-04T00:41:49.785Z,21.56
2022-12-04T00:44:16.233Z,21.56
2022-12-04T00:46:42.860Z,21.52
2022-12-04T00:49:09.312Z,21.51
2022-12-04T00:51:35.782Z,21.49
2022-12-04T00:54:02.325Z,21.46
2022-12-04T00:56:29.469Z,21.42
2022-12-04T00:58:57.785Z,21.39
2022-12-04T01:01:24.586Z,21.38
2022-12-04T01:03:51.323Z,21.35
2022-12-04T01:06:25.713Z,21.31
2022-12-04T01:08:52.738Z,21.28
2022-12-04T01:11:19.352Z,21.27
2022-12-04T01:13:46.109Z,21.24
2022-12-04T01:16:20.196Z,21.19
2022-12-04T01:18:47.041Z,21.19
2022-12-04T01:21:13.530Z,21.19
2022-12-04T01:23:40.010Z,21.21
2022-12-04T01:26:06.539Z,21.20
2022-12-04T01:28:32.978Z,21.20
2022-12-04T01:31:03.221Z,21.18
2022-12-04T01:33:29.809Z,21.16
2022-12-04T01:35:57.156Z,21.14
2022-12-04T01:38:24.337Z,21.10
2022-12-04T01:40:50.862Z,21.07
2022-12-04T01:43:17.849Z,21.05
2022-12-04T01:45:45.675Z,21.02
2022-12-04T01:48:25.116Z,20.98
2022-12-04T01:50:54.102Z,20.96
2022-12-04T01:53:20.556Z,20.91
2022-12-04T01:55:47.374Z,20.92
2022-12-04T01:58:13.881Z,20.90
2022-12-04T02:00:40.367Z,20.91
2022-12-04T02:03:06.902Z,20.91
2022-12-04T02:05:33.448Z,20.90
2022-12-04T02:08:00.966Z,20.87
2022-12-04T02:10:44.888Z,20.86
2022-12-04T02:13:19.771Z,20.85
2022-12-04T02:16:05.596Z,20.83
2022-12-04T02:18:41.113Z,20.81
2022-12-04T02:21:33.741Z,20.79
2022-12-04T02:24:22.498Z,20.76
2022-12-04T02:26:51.868Z,20.75
2022-12-04T02:29:46.384Z,20.72
2022-12-04T02:32:19.888Z,20.71
2022-12-04T02:34:55.525Z,20.73
2022-12-04T02:37:32.083Z,20.72
2022-12-04T02:40:07.811Z,20.72
2022-12-04T02:43:02.177Z,20.68
2022-12-04T02:45:37.267Z,20.68
2022-12-04T02:48:04.348Z,20.64
2022-12-04T02:50:30.899Z,20.65
2022-12-04T02:53:09.526Z,20.63
2022-12-04T02:55:40.315Z,20.62
2022-12-04T02:58:13.241Z,20.58
2022-12-04T03:00:40.075Z,20.58
2022-12-04T03:03:08.575Z,20.56
2022-12-04T03:05:51.064Z,20.54
2022-12-04T03:08:20.228Z,20.53
2022-12-04T03:10:52.273Z,20.52
2022-12-04T03:13:24.128Z,20.52
2022-12-04T03:15:53.672Z,20.53
2022-12-04T03:18:22.665Z,20.53
2022-12-04T03:20:50.348Z,20.49
2022-12-04T03:23:22.327Z,20.51
2022-12-04T03:25:57.511Z,20.50
2022-12-04T03:28:34.417Z,20.49
2022-12-04T03:31:04.787Z,20.48
2022-12-04T03:33:40.302Z,20.46
2022-12-04T03:36:27.918Z,20.46
2022-12-04T03:39:00.596Z,20.42
2022-12-04T03:41:57.251Z,20.41
2022-12-04T03:44:33.197Z,20.40
2022-12-04T03:47:04.693Z,20.38
2022-12-04T03:49:33.273Z,20.40
2022-12-04T03:52:07.638Z,20.39
2022-12-04T03:54:37.128Z,20.39
2022-12-04T03:57:12.887Z,20.37
2022-12-04T03:59:42.680Z,20.36
2022-12-04T04:02:12.435Z,20.34
2022-12-04T04:04:40.614Z,20.31
2022-12-04T04:07:44.382Z,20.30
2022-12-04T04:10:14.047Z,20.27
2022-12-04T04:12:44.077Z,20.26
2022-12-04T04:15:32.138Z,20.25
2022-12-04T04:18:17.479Z,20.23
2022-12-04T04:21:04.596Z,20.21
2022-12-04T04:23:52.360Z,20.17
2022-12-04T04:26:18.919Z,20.16
2022-12-04T04:28:45.782Z,20.14
2022-12-04T04:31:36.840Z,20.13
2022-12-04T04:34:24.669Z,20.10
2022-12-04T04:37:03.414Z,20.09
2022-12-04T04:39:32.091Z,20.07
2022-12-04T04:42:26.610Z,20.09
2022-12-04T04:45:05.697Z,20.10
2022-12-04T04:47:43.725Z,20.15
2022-12-04T04:50:11.039Z,20.17
2022-12-04T04:52:38.472Z,20.19
2022-12-04T04:55:05.241Z,20.20
2022-12-04T04:57:34.232Z,20.22
2022-12-04T05:00:01.026Z,20.22
2022-12-04T05:02:27.695Z,20.22
2022-12-04T05:04:54.731Z,20.21
2022-12-04T05:07:21.197Z,20.20
2022-12-04T05:09:47.644Z,20.20
2022-12-04T05:12:14.106Z,20.17
2022-12-04T05:14:40.582Z,20.15
2022-12-04T05:17:12.332Z,20.15
2022-12-04T05:19:55.030Z,20.17
2022-12-04T05:22:27.530Z,20.17
2022-12-04T05:24:54.074Z,20.14
2022-12-04T05:27:21.324Z,20.11
2022-12-04T05:29:47.789Z,20.06
2022-12-04T05:32:14.261Z,20.07
2022-12-04T05:34:40.791Z,20.07
2022-12-04T05:37:07.254Z,20.06
2022-12-04T05:39:34.308Z,20.02
2022-12-04T05:42:00.994Z,20.03
2022-12-04T05:44:27.484Z,20.02
2022-12-04T05:46:54.431Z,20.02
2022-12-04T05:49:20.921Z,20.03
2022-12-04T05:51:47.372Z,20.03
2022-12-04T05:54:13.817Z,20.03
2022-12-04T05:56:40.259Z,20.03
2022-12-04T05:59:06.709Z,20.02
2022-12-04T06:01:33.236Z,20.02
2022-12-04T06:03:59.727Z,19.99
2022-12-04T06:06:26.303Z,19.97
2022-12-04T06:08:54.986Z,19.97
2022-12-04T06:11:26.786Z,19.98
2022-12-04T06:13:53.274Z,20.04
2022-12-04T06:16:22.143Z,20.06
2022-12-04T06:18:50.195Z,20.06
2022-12-04T06:21:16.729Z,20.04
2022-12-04T06:23:43.189Z,20.01
2022-12-04T06:26:09.661Z,19.97
2022-12-04T06:28:36.366Z,19.94
2022-12-04T06:31:04.026Z,19.92
2022-12-04T06:33:30.523Z,19.95
2022-12-04T06:36:11.406Z,20.01
2022-12-04T06:38:38.192Z,20.04
2022-12-04T06:41:06.063Z,20.06
2022-12-04T06:43:32.647Z,20.08
2022-12-04T06:46:06.970Z,20.12
2022-12-04T06:48:33.543Z,20.11
2022-12-04T06:51:01.106Z,20.13
2022-12-04T06:53:30.172Z,20.13
2022-12-04T06:56:00.523Z,20.13
2022-12-04T06:58:27.086Z,20.16
2022-12-04T07:00:53.921Z,20.15
2022-12-04T07:03:20.474Z,20.18
2022-12-04T07:05:46.945Z,20.17
2022-12-04T07:08:14.068Z,20.16
2022-12-04T07:10:40.525Z,20.17
2022-12-04T07:13:07.049Z,20.17
2022-12-04T07:15:34.503Z,20.15
2022-12-04T07:18:01.045Z,20.17
2022-12-04T07:20:27.569Z,20.17
2022-12-04T07:22:54.038Z,20.14
2022-12-04T07:25:20.490Z,20.10
2022-12-04T07:27:46.986Z,20.07
2022-12-04T07:30:15.868Z,20.04
2022-12-04T07:32:42.605Z,20.02
2022-12-04T07:35:09.204Z,19.99
2022-12-04T07:37:35.981Z,19.92
2022-12-04T07:40:03.531Z,19.97
2022-12-04T07:42:30.003Z,19.95
2022-12-04T07:44:56.452Z,19.96
2022-12-04T07:47:22.902Z,19.97
2022-12-04T07:49:49.412Z,19.98
2022-12-04T07:52:16.109Z,19.97
2022-12-04T07:54:42.559Z,19.95
2022-12-04T07:57:09.013Z,19.94
2022-12-04T07:59:35.456Z,19.91
2022-12-04T08:02:01.949Z,19.90
2022-12-04T08:04:28.845Z,19.88
2022-12-04T08:06:55.619Z,19.87
2022-12-04T08:09:22.246Z,19.86
2022-12-04T08:11:48.692Z,19.84
2022-12-04T08:14:15.242Z,19.87
2022-12-04T08:16:41.733Z,19.92
2022-12-04T08:19:08.210Z,19.99
2022-12-04T08:21:34.738Z,20.07
2022-12-04T08:24:01.265Z,20.09
2022-12-04T08:26:28.929Z,20.17
2022-12-04T08:28:56.215Z,20.20
2022-12-04T08:31:27.457Z,20.27
2022-12-04T08:33:54.746Z,20.30
2022-12-04T08:36:21.699Z,20.39
2022-12-04T08:38:48.589Z,20.37
2022-12-04T08:41:16.114Z,20.38
2022-12-04T08:43:42.571Z,20.39
2022-12-04T08:46:10.840Z,20.44
2022-12-04T08:48:37.356Z,20.41
2022-12-04T08:51:04.360Z,20.40
2022-12-04T08:53:31.226Z,20.39
2022-12-04T08:55:57.677Z,20.37
2022-12-04T08:58:24.146Z,20.36
2022-12-04T09:00:50.596Z,20.36
2022-12-04T09:03:18.271Z,20.36
2022-12-04T09:05:47.870Z,20.39
2022-12-04T09:08:15.242Z,20.45
2022-12-04T09:10:42.056Z,20.44
2022-12-04T09:13:08.615Z,20.45
2022-12-04T09:15:35.144Z,20.43
2022-12-04T09:18:01.624Z,20.42
2022-12-04T09:20:28.583Z,20.45
2022-12-04T09:23:04.125Z,20.38
2022-12-04T09:25:31.847Z,20.34
2022-12-04T09:27:58.309Z,20.30
2022-12-04T09:30:24.763Z,20.33
2022-12-04T09:32:51.314Z,20.30
2022-12-04T09:35:17.775Z,20.25
2022-12-04T09:37:44.225Z,20.20
2022-12-04T09:40:19.782Z,20.29
2022-12-04T09:42:49.837Z,20.34
2022-12-04T09:45:21.064Z,20.47
2022-12-04T09:47:49.005Z,20.52
2022-12-04T09:50:20.912Z,20.59
2022-12-04T09:53:03.516Z,20.52
2022-12-04T09:55:36.348Z,20.55
2022-12-04T09:58:04.837Z,20.55
2022-12-04T10:00:42.059Z,20.46
2022-12-04T10:03:16.552Z,20.51
2022-12-04T10:06:03.984Z,20.55
2022-12-04T10:08:44.125Z,20.53
2022-12-04T10:11:41.400Z,20.55
2022-12-04T10:14:30.378Z,20.52
2022-12-04T10:17:21.643Z,20.54
2022-12-04T10:20:09.116Z,20.52
2022-12-04T10:22:41.750Z,20.50
2022-12-04T10:25:24.229Z,20.45
2022-12-04T10:27:53.970Z,20.40
2022-12-04T10:30:23.604Z,20.38
2022-12-04T10:33:11.893Z,20.34
2022-12-04T10:35:38.673Z,20.32
2022-12-04T10:38:11.318Z,20.27
2022-12-04T10:40:41.691Z,20.25
2022-12-04T10:43:16.849Z,20.21
2022-12-04T10:45:43.353Z,20.22
2022-12-04T10:48:29.271Z,20.24
2022-12-04T10:50:55.860Z,20.29
2022-12-04T10:53:24.682Z,20.32
2022-12-04T10:55:51.131Z,20.33
2022-12-04T10:58:18.086Z,20.32
2022-12-04T11:00:45.769Z,20.30
2022-12-04T11:03:25.691Z,20.28
2022-12-04T11:06:05.502Z,20.28
2022-12-04T11:08:36.529Z,20.27
2022-12-04T11:11:11.413Z,20.29
2022-12-04T11:13:38.133Z,20.32
2022-12-04T11:16:06.498Z,20.35
2022-12-04T11:18:46.242Z,20.36
2022-12-04T11:21:17.252Z,20.36
2022-12-04T11:23:48.536Z,20.35
2022-12-04T11:26:15.374Z,20.31
2022-12-04T11:28:45.841Z,20.28
2022-12-04T11:31:17.052Z,20.25
2022-12-04T11:33:46.187Z,20.25
2022-12-04T11:36:32.027Z,20.22
2022-12-04T11:39:15.555Z,20.18
2022-12-04T11:41:42.112Z,20.15
2022-12-04T11:44:28.377Z,20.13
2022-12-04T11:46:56.510Z,20.10
2022-12-04T11:49:23.939Z,20.08
2022-12-04T11:52:12.317Z,20.11
2022-12-04T11:54:51.753Z,20.15
2022-12-04T11:57:32.031Z,20.17
2022-12-04T12:00:15.115Z,20.18
2022-12-04T12:03:10.900Z,20.18
2022-12-04T12:05:46.284Z,20.18
2022-12-04T12:08:18.726Z,20.16
2022-12-04T12:11:11.171Z,20.15
2022-12-04T12:13:55.032Z,20.16
2022-12-04T12:16:36.645Z,20.19
2022-12-04T12:19:18.204Z,20.19
2022-12-04T12:22:25.929Z,20.26
2022-12-04T12:25:03.956Z,20.32
2022-12-04T12:27:34.983Z,20.35
2022-12-04T12:30:23.451Z,20.43
2022-12-04T12:32:58.904Z,20.58
2022-12-04T12:35:39.651Z,20.67
2022-12-04T12:38:16.245Z,20.81
2022-12-04T12:40:50.082Z,20.91
2022-12-04T12:43:26.280Z,20.97
2022-12-04T12:45:54.021Z,21.06
2022-12-04T12:48:44.920Z,21.12
2022-12-04T12:51:32.207Z,21.19
2022-12-04T12:54:09.063Z,21.27
2022-12-04T12:56:38.432Z,21.39
2022-12-04T12:59:06.021Z,21.58
2022-12-04T13:01:46.191Z,21.79
2022-12-04T13:04:16.006Z,21.91
2022-12-04T13:06:43.166Z,21.99
2022-12-04T13:09:25.575Z,22.04
2022-12-04T13:11:54.133Z,22.05
2022-12-04T13:14:20.790Z,22.08
2022-12-04T13:16:51.270Z,22.12
2022-12-04T13:19:29.831Z,22.12
2022-12-04T13:22:15.664Z,22.15
2022-12-04T13:25:04.687Z,22.16
2022-12-04T13:27:50.261Z,22.17
2022-12-04T13:30:49.597Z,22.30
2022-12-04T13:33:18.555Z,22.31
2022-12-04T13:36:03.325Z,22.37
2022-12-04T13:38:49.915Z,22.45
2022-12-04T13:41:21.847Z,22.45
2022-12-04T13:43:49.222Z,22.40
2022-12-04T13:46:34.853Z,22.39
2022-12-04T13:49:31.163Z,22.40
2022-12-04T13:51:58.601Z,22.24
2022-12-04T13:54:26.232Z,22.22
2022-12-04T13:56:55.501Z,22.20
2022-12-04T13:59:35.207Z,22.19
2022-12-04T14:02:21.723Z,22.16
2022-12-04T14:05:06.579Z,22.20
2022-12-04T14:07:43.211Z,22.12
2022-12-04T14:10:15.786Z,22.11
2022-12-04T14:12:48.954Z,22.10
2022-12-04T14:15:22.169Z,22.17
2022-12-04T14:18:03.431Z,22.20
2022-12-04T14:20:31.952Z,22.24
2022-12-04T14:23:33.403Z,22.22
2022-12-04T14:26:00.105Z,22.17
2022-12-04T14:28:37.321Z,22.20
2022-12-04T14:31:14.326Z,22.22
2022-12-04T14:33:55.693Z,22.11
2022-12-04T14:36:31.397Z,22.11
2022-12-04T14:39:22.855Z,22.07
2022-12-04T14:41:49.334Z,22.07
2022-12-04T14:44:34.077Z,22.19
2022-12-04T14:47:19.258Z,22.14
2022-12-04T14:50:02.950Z,22.16
2022-12-04T14:52:32.992Z,22.12
2022-12-04T14:55:07.354Z,22.14
2022-12-04T14:58:21.729Z,22.09
2022-12-04T15:00:54.955Z,22.05
2022-12-04T15:03:21.949Z,22.05
2022-12-04T15:05:49.688Z,22.03
2022-12-04T15:08:16.415Z,22.01
2022-12-04T15:11:07.826Z,21.98
2022-12-04T15:13:37.247Z,21.98
2022-12-04T15:16:16.715Z,21.97
2022-12-04T15:18:53.577Z,21.94
2022-12-04T15:21:20.028Z,21.91
2022-12-04T15:23:46.483Z,21.96
2022-12-04T15:26:20.956Z,21.92
2022-12-04T15:29:03.429Z,21.95
2022-12-04T15:31:32.359Z,21.97
2022-12-04T15:34:01.494Z,21.99
2022-12-04T15:36:30.507Z,21.95
2022-12-04T15:38:56.965Z,22.03
2022-12-04T15:41:29.311Z,21.95
2022-12-04T15:43:55.770Z,22.00
2022-12-04T15:46:23.904Z,21.94
2022-12-04T15:48:50.443Z,21.91
2022-12-04T15:51:18.924Z,21.89
2022-12-04T15:53:45.861Z,21.86
2022-12-04T15:56:21.808Z,21.86
2022-12-04T15:58:59.401Z,21.98
2022-12-04T16:01:25.918Z,21.96
2022-12-04T16:03:53.309Z,22.04
2022-12-04T16:06:23.191Z,22.14
2022-12-04T16:08:57.362Z,22.24
2022-12-04T16:11:28.740Z,22.44
2022-12-04T16:14:07.999Z,22.65
2022-12-04T16:16:37.437Z,22.76
2022-12-04T16:19:27.670Z,22.86
2022-12-04T16:21:54.181Z,22.95
2022-12-04T16:24:21.547Z,23.06
2022-12-04T16:26:50.105Z,23.15
2022-12-04T16:29:17.614Z,23.20
2022-12-04T16:31:44.155Z,23.22
2022-12-04T16:34:13.830Z,23.31
2022-12-04T16:36:40.597Z,23.34
2022-12-04T16:39:07.116Z,23.52
2022-12-04T16:41:33.833Z,23.50
2022-12-04T16:44:00.532Z,23.49
2022-12-04T16:46:28.131Z,23.57
2022-12-04T16:48:54.896Z,23.79
2022-12-04T16:51:25.378Z,23.69
2022-12-04T16:53:52.012Z,23.66
2022-12-04T16:56:18.949Z,23.68
2022-12-04T16:58:45.387Z,23.68
2022-12-04T17:01:24.742Z,23.71
2022-12-04T17:03:51.347Z,23.69
2022-12-04T17:06:18.221Z,23.81
2022-12-04T17:08:44.795Z,23.77
2022-12-04T17:11:15.263Z,23.71
2022-12-04T17:13:41.893Z,23.70
2022-12-04T17:16:08.784Z,23.66
2022-12-04T17:18:35.298Z,23.65
2022-12-04T17:21:08.511Z,23.58
2022-12-04T17:23:34.989Z,23.59
2022-12-04T17:26:05.555Z,23.67
2022-12-04T17:28:32.111Z,23.69
2022-12-04T17:30:58.743Z,23.77
2022-12-04T17:33:25.677Z,23.73
2022-12-04T17:35:53.968Z,23.77
2022-12-04T17:38:20.509Z,23.75
2022-12-04T17:40:58.048Z,23.76
2022-12-04T17:43:24.609Z,23.78
2022-12-04T17:45:51.143Z,23.75
2022-12-04T17:48:17.598Z,23.72
2022-12-04T17:50:44.109Z,23.64
2022-12-04T17:53:10.616Z,23.60
2022-12-04T17:55:37.126Z,23.70
2022-12-04T17:58:03.760Z,23.73
2022-12-04T18:00:30.381Z,23.75
2022-12-04T18:02:57.022Z,23.87
2022-12-04T18:05:23.545Z,23.91
2022-12-04T18:07:50.146Z,23.95
2022-12-04T18:10:16.688Z,23.94
2022-12-04T18:12:43.575Z,23.91
2022-12-04T18:15:10.615Z,23.93
2022-12-04T18:17:37.125Z,23.92
2022-12-04T18:20:05.333Z,23.72
2022-12-04T18:22:32.274Z,23.61
2022-12-04T18:24:58.963Z,23.56
2022-12-04T18:27:25.620Z,23.58
2022-12-04T18:29:52.164Z,23.58
2022-12-04T18:32:18.818Z,23.56
2022-12-04T18:34:45.667Z,23.53
2022-12-04T18:37:12.203Z,23.53
2022-12-04T18:39:38.664Z,23.57
2022-12-04T18:42:05.261Z,23.64
2022-12-04T18:44:31.807Z,23.63
2022-12-04T18:46:58.472Z,23.61
2022-12-04T18:49:25.172Z,23.56
2022-12-04T18:51:51.834Z,23.54
2022-12-04T18:54:19.930Z,23.56
2022-12-04T18:56:46.600Z,23.54
2022-12-04T18:59:21.246Z,23.49
2022-12-04T19:01:49.946Z,23.50
2022-12-04T19:04:18.346Z,23.49
2022-12-04T19:06:46.718Z,23.46
2022-12-04T19:09:15.794Z,23.47
2022-12-04T19:11:42.356Z,23.52
2022-12-04T19:14:17.682Z,23.67
2022-12-04T19:17:04.858Z,23.70
2022-12-04T19:19:31.916Z,23.76
2022-12-04T19:21:59.018Z,23.58
2022-12-04T19:24:25.533Z,23.51
2022-12-04T19:26:53.308Z,23.45
2022-12-04T19:29:19.717Z,23.42
2022-12-04T19:31:46.168Z,23.39
2022-12-04T19:34:12.602Z,23.32
2022-12-04T19:36:40.269Z,23.29
2022-12-04T19:39:09.255Z,23.25
2022-12-04T19:41:37.216Z,23.21
2022-12-04T19:44:19.982Z,23.19
2022-12-04T19:46:50.499Z,23.16
2022-12-04T19:49:16.914Z,23.13
2022-12-04T19:51:43.600Z,23.16
2022-12-04T19:54:12.776Z,23.06
2022-12-04T19:56:39.235Z,23.06
2022-12-04T19:59:06.762Z,23.06
2022-12-04T20:01:33.553Z,23.03
2022-12-04T20:04:02.476Z,23.02
2022-12-04T20:06:29.250Z,22.99
2022-12-04T20:08:57.635Z,22.91
2022-12-04T20:11:24.113Z,22.96
2022-12-04T20:13:53.878Z,22.97
2022-12-04T20:16:20.544Z,23.01
2022-12-04T20:18:47.101Z,23.09
2022-12-04T20:21:13.666Z,23.25
2022-12-04T20:23:49.431Z,23.38
2022-12-04T20:26:23.393Z,23.49
2022-12-04T20:28:49.924Z,23.55
2022-12-04T20:31:20.873Z,23.61
2022-12-04T20:33:48.133Z,23.65
2022-12-04T20:36:15.639Z,23.70
2022-12-04T20:38:42.321Z,23.79
2022-12-04T20:41:10.190Z,23.87
2022-12-04T20:43:36.774Z,23.98
2022-12-04T20:46:13.589Z,24.05
2022-12-04T20:48:40.094Z,24.14
2022-12-04T20:51:06.666Z,24.33
2022-12-04T20:53:33.139Z,24.26
2022-12-04T20:55:59.575Z,24.20
2022-12-04T20:58:26.051Z,24.35
2022-12-04T21:00:52.537Z,24.42
2022-12-04T21:03:19.040Z,24.54
2022-12-04T21:05:49.789Z,24.53
2022-12-04T21:08:36.200Z,24.55
2022-12-04T21:11:02.979Z,24.55
2022-12-04T21:13:48.127Z,24.62
2022-12-04T21:16:14.843Z,24.57
2022-12-04T21:18:41.350Z,24.60
2022-12-04T21:21:07.803Z,24.62
2022-12-04T21:23:35.864Z,24.66
2022-12-04T21:26:02.367Z,24.60
2022-12-04T21:28:28.835Z,24.64
2022-12-04T21:31:03.438Z,24.66
2022-12-04T21:33:31.554Z,24.61
2022-12-04T21:36:06.399Z,24.64
2022-12-04T21:38:33.951Z,24.54
2022-12-04T21:41:00.562Z,24.39
2022-12-04T21:43:28.724Z,24.49
2022-12-04T21:46:09.048Z,24.54
2022-12-04T21:48:36.309Z,24.54
2022-12-04T21:51:13.235Z,24.50
2022-12-04T21:53:54.534Z,24.51
2022-12-04T21:56:24.336Z,24.45
2022-12-04T21:58:51.383Z,24.49
2022-12-04T22:01:18.569Z,24.47
2022-12-04T22:03:45.123Z,24.44
2022-12-04T22:06:11.586Z,24.42
2022-12-04T22:08:39.393Z,24.41
2022-12-04T22:11:06.834Z,24.40
2022-12-04T22:13:33.485Z,24.40
2022-12-04T22:16:06.120Z,24.35
2022-12-04T22:18:33.744Z,24.37
2022-12-04T22:21:00.892Z,24.34
2022-12-04T22:23:27.381Z,24.40
2022-12-04T22:25:53.828Z,24.27
2022-12-04T22:28:20.315Z,24.17
2022-12-04T22:30:46.984Z,24.17
2022-12-04T22:33:13.452Z,24.26
2022-12-04T22:35:39.901Z,24.24
2022-12-04T22:38:06.364Z,24.26
2022-12-04T22:40:32.992Z,24.26
2022-12-04T22:42:59.437Z,24.27
2022-12-04T22:45:25.886Z,24.24
2022-12-04T22:47:52.404Z,24.20
2022-12-04T22:50:18.953Z,24.19
2022-12-04T22:52:45.474Z,24.16
2022-12-04T22:55:11.922Z,24.14
2022-12-04T22:57:38.384Z,24.13
2022-12-04T23:00:05.778Z,24.15
2022-12-04T23:02:32.890Z,23.67
2022-12-04T23:04:59.393Z,23.44
2022-12-04T23:07:25.894Z,23.33
2022-12-04T23:09:52.689Z,23.22
2022-12-04T23:12:19.384Z,23.20
2022-12-04T23:14:45.834Z,23.19
2022-12-04T23:17:12.286Z,23.16
2022-12-04T23:19:38.757Z,23.13
2022-12-04T23:22:05.218Z,23.09
2022-12-04T23:24:31.716Z,23.07
2022-12-04T23:26:58.226Z,23.07
2022-12-04T23:32:11.207Z,23.00
2022-12-04T23:34:38.125Z,22.98
2022-12-04T23:37:04.584Z,22.99
2022-12-04T23:39:31.045Z,22.97
2022-12-04T23:41:57.506Z,22.93
2022-12-04T23:44:23.961Z,22.90
2022-12-04T23:46:50.484Z,22.87
2022-12-04T23:49:16.975Z,22.84
2022-12-04T23:51:43.435Z,22.82
2022-12-04T23:54:09.880Z,22.78
2022-12-04T23:56:36.324Z,22.78
2022-12-04T23:59:02.785Z,22.74
